createdAt,value
2018-03-16T00:00:48.185Z,22.90
2018-03-16T00:03:16.445Z,22.33
2018-03-16T00:05:44.747Z,21.63
2018-03-16T00:08:13.086Z,16.37
2018-03-16T00:10:42.090Z,15.80
2018-03-16T00:13:10.357Z,21.53
2018-03-16T00:15:38.635Z,21.13
2018-03-16T00:18:06.936Z,23.33
2018-03-16T00:20:35.209Z,23.27
2018-03-16T00:23:03.542Z,23.47
2018-03-16T00:25:31.810Z,24.23
2018-03-16T00:28:00.100Z,25.80
2018-03-16T00:30:28.406Z,25.43
2018-03-16T00:32:56.694Z,19.27
2018-03-16T00:35:24.967Z,21.60
2018-03-16T00:37:53.284Z,21.23
2018-03-16T00:40:21.543Z,26.47
2018-03-16T00:42:49.890Z,22.57
2018-03-16T00:45:18.178Z,22.50
2018-03-16T00:47:46.460Z,24.00
2018-03-16T00:50:14.767Z,22.23
2018-03-16T00:52:43.815Z,22.70
2018-03-16T00:55:12.129Z,16.70
2018-03-16T00:57:40.430Z,23.80
2018-03-16T01:00:09.474Z,20.60
2018-03-16T01:02:38.541Z,22.47
2018-03-16T01:05:06.830Z,19.00
2018-03-16T01:07:35.150Z,22.87
2018-03-16T01:10:03.506Z,22.73
2018-03-16T01:12:31.757Z,22.70
2018-03-16T01:15:00.066Z,16.27
2018-03-16T01:17:28.347Z,21.20
2018-03-16T01:19:56.675Z,21.90
2018-03-16T01:22:24.954Z,21.87
2018-03-16T01:24:53.986Z,21.83
2018-03-16T01:27:22.313Z,20.70
2018-03-16T01:29:51.363Z,22.53
2018-03-16T01:32:19.638Z,24.20
2018-03-16T01:34:47.935Z,25.47
2018-03-16T01:37:16.211Z,22.67
2018-03-16T01:39:44.538Z,21.17
2018-03-16T01:42:12.831Z,24.00
2018-03-16T01:44:41.094Z,25.30
2018-03-16T01:47:09.398Z,21.07
2018-03-16T01:49:37.656Z,23.70
2018-03-16T01:52:05.931Z,20.47
2018-03-16T01:54:35.028Z,24.30
2018-03-16T01:57:04.081Z,22.50
2018-03-16T01:59:32.396Z,25.23
2018-03-16T02:02:00.674Z,21.63
2018-03-16T02:04:29.709Z,19.87
2018-03-16T02:06:58.011Z,24.67
2018-03-16T02:09:26.310Z,22.57
2018-03-16T02:11:55.392Z,21.90
2018-03-16T02:14:23.663Z,21.43
2018-03-16T02:16:51.947Z,24.03
2018-03-16T02:19:20.237Z,24.33
2018-03-16T02:21:49.279Z,23.87
2018-03-16T02:24:17.597Z,22.53
2018-03-16T02:26:45.892Z,26.93
2018-03-16T02:29:14.159Z,20.63
2018-03-16T02:31:42.502Z,21.20
2018-03-16T02:34:10.802Z,22.17
2018-03-16T02:36:39.147Z,24.00
2018-03-16T02:39:07.421Z,27.10
2018-03-16T02:41:35.719Z,22.40
2018-03-16T02:44:04.030Z,24.33
2018-03-16T02:46:32.318Z,19.37
2018-03-16T02:49:00.627Z,25.63
2018-03-16T02:51:29.662Z,26.80
2018-03-16T02:53:57.926Z,22.73
2018-03-16T02:56:26.267Z,22.20
2018-03-16T02:58:54.532Z,21.63
2018-03-16T03:01:23.628Z,19.77
2018-03-16T03:03:52.680Z,20.60
2018-03-16T03:06:20.965Z,25.27
2018-03-16T03:08:49.266Z,18.10
2018-03-16T03:11:17.538Z,23.27
2018-03-16T03:13:45.857Z,22.73
2018-03-16T03:16:14.153Z,25.10
2018-03-16T03:18:42.417Z,20.70
2018-03-16T03:21:10.723Z,26.00
2018-03-16T03:23:39.032Z,23.80
2018-03-16T03:26:07.341Z,24.77
2018-03-16T03:28:35.617Z,24.70
2018-03-16T03:31:03.890Z,23.30
2018-03-16T03:33:32.194Z,23.50
2018-03-16T03:36:00.473Z,23.30
2018-03-16T03:38:28.797Z,23.33
2018-03-16T03:40:57.060Z,22.53
2018-03-16T03:43:26.141Z,21.70
2018-03-16T03:45:54.571Z,26.07
2018-03-16T03:48:22.847Z,23.97
2018-03-16T03:50:51.927Z,24.07
2018-03-16T03:53:20.227Z,23.70
2018-03-16T03:55:49.311Z,22.57
2018-03-16T03:58:17.681Z,25.13
2018-03-16T04:00:45.929Z,25.67
2018-03-16T04:03:14.260Z,26.47
2018-03-16T04:05:43.306Z,25.30
2018-03-16T04:08:11.582Z,23.10
2018-03-16T04:10:39.910Z,25.50
2018-03-16T04:13:08.181Z,23.53
2018-03-16T04:15:36.541Z,22.37
2018-03-16T04:18:04.863Z,26.93
2018-03-16T04:20:33.145Z,22.87
2018-03-16T04:23:01.435Z,17.20
2018-03-16T04:25:29.732Z,23.37
2018-03-16T04:27:58.009Z,21.87
2018-03-16T04:30:26.329Z,25.13
2018-03-16T04:32:55.368Z,22.37
2018-03-16T04:35:23.634Z,25.30
2018-03-16T04:37:51.950Z,24.07
2018-03-16T04:40:20.221Z,25.17
2018-03-16T04:42:48.489Z,28.20
2018-03-16T04:45:16.795Z,24.80
2018-03-16T04:47:45.074Z,31.93
2018-03-16T04:50:13.422Z,22.60
2018-03-16T04:52:41.701Z,27.83
2018-03-16T04:55:09.998Z,25.53
2018-03-16T04:57:38.305Z,30.93
2018-03-16T05:00:07.353Z,26.97
2018-03-16T05:02:35.674Z,24.87
2018-03-16T05:05:03.986Z,25.50
2018-03-16T05:07:32.268Z,21.53
2018-03-16T05:10:00.571Z,23.07
2018-03-16T05:12:28.854Z,23.40
2018-03-16T05:14:57.176Z,22.40
2018-03-16T05:17:26.221Z,21.60
2018-03-16T05:19:54.579Z,26.87
2018-03-16T05:22:22.882Z,23.53
2018-03-16T05:24:51.158Z,23.20
2018-03-16T05:27:19.505Z,23.00
2018-03-16T05:29:47.957Z,26.57
2018-03-16T05:32:16.989Z,25.10
2018-03-16T05:34:45.304Z,19.50
2018-03-16T05:37:13.638Z,25.50
2018-03-16T05:39:41.999Z,22.97
2018-03-16T05:42:11.042Z,23.80
2018-03-16T05:44:39.338Z,22.17
2018-03-16T05:47:07.649Z,16.23
2018-03-16T05:49:36.707Z,23.10
2018-03-16T05:52:04.984Z,20.37
2018-03-16T05:54:33.311Z,22.20
2018-03-16T05:57:01.614Z,22.77
2018-03-16T05:59:29.910Z,24.33
2018-03-16T06:01:58.219Z,25.73
2018-03-16T06:04:26.509Z,19.90
2018-03-16T06:06:55.697Z,23.47
2018-03-16T06:09:23.954Z,22.17
2018-03-16T06:11:52.252Z,20.37
2018-03-16T06:14:20.587Z,18.43
2018-03-16T06:16:49.583Z,22.87
2018-03-16T06:19:17.914Z,23.83
2018-03-16T06:21:46.977Z,23.87
2018-03-16T06:24:15.260Z,25.07
2018-03-16T06:26:43.570Z,25.37
2018-03-16T06:29:11.834Z,22.63
2018-03-16T06:31:40.149Z,23.47
2018-03-16T06:34:08.425Z,25.50
2018-03-16T06:36:36.700Z,23.43
2018-03-16T06:39:05.816Z,23.33
2018-03-16T06:41:34.084Z,18.60
2018-03-16T06:44:02.393Z,18.17
2018-03-16T06:46:30.661Z,20.20
2018-03-16T06:48:58.942Z,18.70
2018-03-16T06:51:27.250Z,18.37
2018-03-16T06:53:55.509Z,21.33
2018-03-16T06:56:23.856Z,24.77
2018-03-16T06:58:52.134Z,19.63
2018-03-16T07:01:20.429Z,18.43
2018-03-16T07:03:48.787Z,20.37
2018-03-16T07:06:17.060Z,23.73
2018-03-16T07:08:45.402Z,23.07
2018-03-16T07:11:13.691Z,19.80
2018-03-16T07:13:41.952Z,22.60
2018-03-16T07:16:10.332Z,17.37
2018-03-16T07:18:39.352Z,20.15
2018-03-16T07:21:08.439Z,19.67
2018-03-16T07:23:37.505Z,20.17
2018-03-16T07:26:05.770Z,17.40
2018-03-16T07:28:34.082Z,21.17
2018-03-16T07:31:02.358Z,17.13
2018-03-16T07:33:30.632Z,18.33
2018-03-16T07:35:58.922Z,17.93
2018-03-16T07:38:27.975Z,20.50
2018-03-16T07:40:56.416Z,17.90
2018-03-16T07:43:24.718Z,17.47
2018-03-16T07:45:58.635Z,16.47
2018-03-16T07:48:26.921Z,18.10
2018-03-16T07:50:55.274Z,17.67
2018-03-16T07:53:23.591Z,20.00
2018-03-16T07:55:51.875Z,16.70
2018-03-16T07:58:20.202Z,13.73
2018-03-16T08:00:48.502Z,21.43
2018-03-16T08:03:16.783Z,17.87
2018-03-16T08:05:45.090Z,16.20
2018-03-16T08:08:13.348Z,20.50
2018-03-16T08:10:41.682Z,15.73
2018-03-16T08:13:10.734Z,16.20
2018-03-16T08:15:39.013Z,17.63
2018-03-16T08:18:07.414Z,13.90
2018-03-16T08:20:35.771Z,17.20
2018-03-16T08:23:04.046Z,13.63
2018-03-16T08:25:32.368Z,14.50
2018-03-16T08:28:01.421Z,12.63
2018-03-16T08:30:29.678Z,12.17
2018-03-16T08:32:59.294Z,16.90
2018-03-16T08:35:27.579Z,13.70
2018-03-16T08:37:55.851Z,11.27
2018-03-16T08:40:24.210Z,13.33
2018-03-16T08:42:52.487Z,14.30
2018-03-16T08:45:20.767Z,11.50
2018-03-16T08:47:49.078Z,14.20
2018-03-16T08:50:17.373Z,13.47
2018-03-16T08:52:45.642Z,12.40
2018-03-16T08:55:13.947Z,14.93
2018-03-16T08:57:42.218Z,12.70
2018-03-16T09:00:10.549Z,13.60
2018-03-16T09:02:41.837Z,11.27
2018-03-16T09:05:10.164Z,16.70
2018-03-16T09:07:40.329Z,12.60
2018-03-16T09:10:08.616Z,12.80
2018-03-16T09:12:37.593Z,12.73
2018-03-16T09:15:05.861Z,13.73
2018-03-16T09:17:34.177Z,12.93
2018-03-16T09:20:02.438Z,16.10
2018-03-16T09:22:30.722Z,11.70
2018-03-16T09:24:59.054Z,10.93
2018-03-16T09:27:27.340Z,11.07
2018-03-16T09:29:55.614Z,10.93
2018-03-16T09:32:23.929Z,12.93
2018-03-16T09:34:52.251Z,13.60
2018-03-16T09:37:20.561Z,15.20
2018-03-16T09:39:48.861Z,11.80
2018-03-16T09:42:17.121Z,9.20
2018-03-16T09:44:45.490Z,14.70
2018-03-16T09:47:13.817Z,9.57
2018-03-16T09:49:42.080Z,11.57
2018-03-16T09:52:10.414Z,9.70
2018-03-16T09:54:50.495Z,12.70
2018-03-16T09:57:18.835Z,13.27
2018-03-16T09:59:47.407Z,14.73
2018-03-16T10:02:15.688Z,11.63
2018-03-16T10:04:44.017Z,11.50
2018-03-16T10:07:12.296Z,11.40
2018-03-16T10:09:40.618Z,11.27
2018-03-16T10:12:08.897Z,9.50
2018-03-16T10:14:37.942Z,10.90
2018-03-16T10:17:06.243Z,9.80
2018-03-16T10:19:34.541Z,10.70
2018-03-16T10:22:02.956Z,12.53
2018-03-16T10:24:31.253Z,10.40
2018-03-16T10:27:02.997Z,10.70
2018-03-16T10:29:31.273Z,11.10
2018-03-16T10:31:59.554Z,12.67
2018-03-16T10:34:27.959Z,9.07
2018-03-16T10:36:56.264Z,9.93
2018-03-16T10:39:24.612Z,12.83
2018-03-16T10:41:52.899Z,8.90
2018-03-16T10:44:21.167Z,8.97
2018-03-16T10:46:49.542Z,10.60
2018-03-16T10:49:17.860Z,11.80
2018-03-16T10:51:46.198Z,12.60
2018-03-16T10:54:16.444Z,11.53
2018-03-16T10:56:44.703Z,12.30
2018-03-16T10:59:13.112Z,13.13
2018-03-16T11:01:47.066Z,12.77
2018-03-16T11:04:15.534Z,15.87
2018-03-16T11:20:06.183Z,7.47
2018-03-16T11:22:34.475Z,12.90
2018-03-16T11:25:02.748Z,10.77
2018-03-16T11:27:31.060Z,12.97
2018-03-16T11:30:00.147Z,12.70
2018-03-16T11:32:32.032Z,12.73
2018-03-16T11:35:00.329Z,9.60
2018-03-16T11:37:28.631Z,9.50
2018-03-16T11:39:56.941Z,11.10
2018-03-16T11:42:25.251Z,13.27
2018-03-16T11:44:53.581Z,10.20
2018-03-16T11:47:21.859Z,10.50
2018-03-16T11:49:50.137Z,9.30
2018-03-16T11:52:18.439Z,13.60
2018-03-16T11:54:46.742Z,12.30
2018-03-16T11:57:15.099Z,8.43
2018-03-16T11:59:44.139Z,12.70
2018-03-16T12:02:12.451Z,10.33
2018-03-16T12:04:40.771Z,11.13
2018-03-16T12:07:09.047Z,9.17
2018-03-16T12:09:37.377Z,10.70
2018-03-16T12:12:05.663Z,10.57
2018-03-16T12:14:33.937Z,11.27
2018-03-16T12:17:02.297Z,9.17
2018-03-16T12:19:30.583Z,10.80
2018-03-16T12:21:58.872Z,10.27
2018-03-16T12:24:27.190Z,10.87
2018-03-16T12:26:55.474Z,6.80
2018-03-16T12:29:23.810Z,5.07
2018-03-16T12:31:52.090Z,8.03
2018-03-16T12:34:20.377Z,10.10
2018-03-16T12:36:49.470Z,8.00
2018-03-16T12:39:17.743Z,9.97
2018-03-16T12:41:46.064Z,9.77
2018-03-16T12:44:14.359Z,0.60
2018-03-16T12:46:42.634Z,0.60
2018-03-16T12:49:10.948Z,0.70
2018-03-16T12:51:42.226Z,0.70
2018-03-16T12:54:07.542Z,1.43
2018-03-16T12:56:36.577Z,2.83
2018-03-16T12:59:04.854Z,0.70
2018-03-16T13:01:33.163Z,0.67
2018-03-16T13:04:01.413Z,0.80
2018-03-16T13:06:29.734Z,2.10
2018-03-16T13:08:58.004Z,0.90
2018-03-16T13:11:26.282Z,0.70
2018-03-16T13:13:54.631Z,1.07
2018-03-16T13:16:23.006Z,1.77
2018-03-16T13:18:51.330Z,0.70
2018-03-16T13:21:20.387Z,0.70
2018-03-16T13:23:48.657Z,0.70
2018-03-16T13:26:17.792Z,0.80
2018-03-16T13:28:46.075Z,2.07
2018-03-16T13:31:15.170Z,0.70
2018-03-16T13:33:43.451Z,0.70
2018-03-16T13:36:12.480Z,0.70
2018-03-16T13:38:40.819Z,1.43
2018-03-16T13:41:09.079Z,1.00
2018-03-16T13:43:37.345Z,1.07
2018-03-16T13:46:05.669Z,1.43
2018-03-16T13:48:35.522Z,0.70
2018-03-16T13:51:03.786Z,5.30
2018-03-16T13:53:32.082Z,2.93
2018-03-16T13:56:00.376Z,0.73
2018-03-16T13:58:28.732Z,1.73
2018-03-16T14:00:56.994Z,1.87
2018-03-16T14:03:25.283Z,0.60
2018-03-16T14:05:54.358Z,0.80
2018-03-16T14:08:22.790Z,0.70
2018-03-16T14:10:51.096Z,16.30
2018-03-16T14:13:20.174Z,0.90
2018-03-16T14:15:48.463Z,0.70
2018-03-16T14:18:16.788Z,1.50
2018-03-16T14:20:45.290Z,0.67
2018-03-16T14:23:13.563Z,2.00
2018-03-16T14:25:41.872Z,0.70
2018-03-16T14:28:10.150Z,0.70
2018-03-16T14:30:38.469Z,4.40
2018-03-16T14:33:06.746Z,3.20
2018-03-16T14:35:35.011Z,1.90
2018-03-16T14:38:03.311Z,1.47
2018-03-16T14:40:31.596Z,0.70
2018-03-16T14:42:59.987Z,8.20
2018-03-16T14:45:28.509Z,0.70
2018-03-16T14:47:56.839Z,0.70
2018-03-16T14:50:25.159Z,1.57
2018-03-16T14:52:53.448Z,0.90
2018-03-16T14:55:21.722Z,0.83
2018-03-16T14:57:50.067Z,0.70
2018-03-16T15:00:18.331Z,1.00
2018-03-16T15:02:46.716Z,0.70
2018-03-16T15:05:18.285Z,4.90
2018-03-16T15:07:52.844Z,3.90
2018-03-16T15:10:21.508Z,5.73
2018-03-16T15:12:53.216Z,7.03
2018-03-16T15:15:24.263Z,5.47
2018-03-16T15:17:53.469Z,6.00
2018-03-16T15:20:21.772Z,7.13
2018-03-16T15:22:50.104Z,8.47
2018-03-16T15:25:19.157Z,6.70
2018-03-16T15:27:47.458Z,9.13
2018-03-16T15:30:15.787Z,6.07
2018-03-16T15:32:49.275Z,9.10
2018-03-16T15:35:17.597Z,4.60
2018-03-16T15:37:45.962Z,6.13
2018-03-16T15:40:14.989Z,6.30
2018-03-16T15:42:43.326Z,5.50
2018-03-16T15:45:11.742Z,9.60
2018-03-16T15:47:40.817Z,7.33
2018-03-16T15:50:10.788Z,8.60
2018-03-16T15:52:39.988Z,9.33
2018-03-16T15:55:09.122Z,5.90
2018-03-16T15:57:37.455Z,8.87
2018-03-16T16:00:06.506Z,7.60
2018-03-16T16:02:34.826Z,7.80
2018-03-16T16:05:03.095Z,6.87
2018-03-16T16:07:31.439Z,6.97
2018-03-16T16:09:59.772Z,6.17
2018-03-16T16:12:28.115Z,8.13
2018-03-16T16:14:57.037Z,6.60
2018-03-16T16:17:26.093Z,7.30
2018-03-16T16:19:54.504Z,6.12
2018-03-16T16:22:22.821Z,5.77
2018-03-16T16:24:51.114Z,6.23
2018-03-16T16:27:19.421Z,6.43
2018-03-16T16:29:47.723Z,6.00
2018-03-16T16:32:16.814Z,5.70
2018-03-16T16:34:45.099Z,7.87
2018-03-16T16:37:14.175Z,6.00
2018-03-16T16:39:42.476Z,7.30
2018-03-16T16:42:12.487Z,7.20
2018-03-16T16:44:40.816Z,7.07
2018-03-16T16:47:09.105Z,9.20
2018-03-16T16:49:37.386Z,6.30
2018-03-16T16:52:05.723Z,5.82
2018-03-16T16:54:34.183Z,5.43
2018-03-16T16:57:02.506Z,5.10
2018-03-16T16:59:30.828Z,3.90
2018-03-16T17:01:59.118Z,5.77
2018-03-16T17:04:27.418Z,6.33
2018-03-16T17:06:55.778Z,5.93
2018-03-16T17:09:24.042Z,7.57
2018-03-16T17:11:52.319Z,6.12
2018-03-16T17:14:20.723Z,6.37
2018-03-16T17:16:49.767Z,7.28
2018-03-16T17:19:18.082Z,6.27
2018-03-16T17:21:47.960Z,7.83
2018-03-16T17:24:16.240Z,7.10
2018-03-16T17:26:44.575Z,8.57
2018-03-16T17:29:12.861Z,5.30
2018-03-16T17:31:41.153Z,6.53
2018-03-16T17:34:09.491Z,5.47
2018-03-16T17:36:38.734Z,6.97
2018-03-16T17:39:08.063Z,4.35
2018-03-16T17:41:39.731Z,6.10
2018-03-16T17:44:07.981Z,5.73
2018-03-16T17:46:36.370Z,7.70
2018-03-16T17:49:05.415Z,5.67
2018-03-16T17:51:33.720Z,7.32
2018-03-16T17:54:02.689Z,5.20
2018-03-16T17:56:31.044Z,4.35
2018-03-16T17:58:59.404Z,8.40
2018-03-16T18:01:27.699Z,5.05
2018-03-16T18:03:56.085Z,6.50
2018-03-16T18:06:24.460Z,5.03
2018-03-16T18:08:52.758Z,5.90
2018-03-16T18:11:22.399Z,5.03
2018-03-16T18:13:50.747Z,7.78
2018-03-16T18:16:19.868Z,5.90
2018-03-16T18:18:48.182Z,6.70
2018-03-16T18:21:16.561Z,7.30
2018-03-16T18:23:44.838Z,7.37
2018-03-16T18:26:13.122Z,7.32
2018-03-16T18:28:41.454Z,5.75
2018-03-16T18:31:09.753Z,8.25
2018-03-16T18:33:38.133Z,0.70
2018-03-16T18:36:06.522Z,1.87
2018-03-16T18:38:35.482Z,0.70
2018-03-16T18:41:04.650Z,0.60
2018-03-16T18:43:32.968Z,1.73
2018-03-16T18:46:01.584Z,3.03
2018-03-16T18:48:29.888Z,0.70
2018-03-16T18:50:58.167Z,0.90
2018-03-16T18:53:26.514Z,1.45
2018-03-16T18:55:54.859Z,1.10
2018-03-16T18:58:23.240Z,1.02
2018-03-16T19:00:51.706Z,1.15
2018-03-16T19:03:20.096Z,5.65
2018-03-16T19:05:49.044Z,1.00
2018-03-16T19:08:17.395Z,1.73
2018-03-16T19:10:45.778Z,0.77
2018-03-16T19:13:14.098Z,0.70
2018-03-16T19:15:42.542Z,5.43
2018-03-16T19:18:10.829Z,1.40
2018-03-16T19:20:39.264Z,1.53
2018-03-16T19:23:07.732Z,0.70
2018-03-16T19:25:36.393Z,2.80
2018-03-16T19:28:04.679Z,1.35
2018-03-16T19:30:33.016Z,1.93
2018-03-16T19:33:01.386Z,2.15
2018-03-16T19:35:30.478Z,3.90
2018-03-16T19:37:58.850Z,2.12
2018-03-16T19:40:27.159Z,1.97
2018-03-16T19:42:55.516Z,1.50
2018-03-16T19:45:23.816Z,0.73
2018-03-16T19:47:52.092Z,0.70
2018-03-16T19:50:20.435Z,0.80
2018-03-16T19:52:49.838Z,4.12
2018-03-16T19:55:18.198Z,2.00
2018-03-16T19:57:47.483Z,1.67
2018-03-16T20:00:15.772Z,0.70
2018-03-16T20:02:44.227Z,1.40
2018-03-16T20:05:12.515Z,1.20
2018-03-16T20:07:40.932Z,4.68
2018-03-16T20:10:09.212Z,0.73
2018-03-16T20:12:38.932Z,9.07
2018-03-16T20:15:07.376Z,0.60
2018-03-16T20:17:35.726Z,0.70
2018-03-16T20:20:04.031Z,1.23
2018-03-16T20:22:32.807Z,3.03
2018-03-16T20:25:02.179Z,0.93
2018-03-16T20:27:31.329Z,1.08
2018-03-16T20:29:59.683Z,3.10
2018-03-16T20:32:28.022Z,0.80
2018-03-16T20:34:56.704Z,0.80
2018-03-16T20:37:27.822Z,1.55
2018-03-16T20:39:56.511Z,4.40
2018-03-16T20:42:24.867Z,1.55
2018-03-16T20:44:53.208Z,1.13
2018-03-16T20:47:21.596Z,0.70
2018-03-16T20:49:49.962Z,0.70
2018-03-16T20:52:18.334Z,0.70
2018-03-16T20:54:47.549Z,1.73
2018-03-16T20:57:16.863Z,2.62
2018-03-16T20:59:45.319Z,1.73
2018-03-16T21:02:13.674Z,3.62
2018-03-16T21:04:42.039Z,1.20
2018-03-16T21:07:11.221Z,1.40
2018-03-16T21:09:39.529Z,3.63
2018-03-16T21:12:11.140Z,1.05
2018-03-16T21:14:39.703Z,2.80
2018-03-16T21:17:08.084Z,0.80
2018-03-16T21:19:37.056Z,0.93
2018-03-16T21:22:05.683Z,2.25
2018-03-16T21:24:37.316Z,0.90
2018-03-16T21:27:06.025Z,0.77
2018-03-16T21:29:35.120Z,1.57
2018-03-16T21:32:03.551Z,0.90
2018-03-16T21:34:31.923Z,3.28
2018-03-16T21:37:00.359Z,1.42
2018-03-16T21:39:30.103Z,0.90
2018-03-16T21:41:58.647Z,0.90
2018-03-16T21:44:27.027Z,1.83
2018-03-16T21:46:55.340Z,1.50
2018-03-16T21:49:23.734Z,1.33
2018-03-16T21:51:52.507Z,1.30
2018-03-16T21:54:21.181Z,0.83
2018-03-16T21:56:49.620Z,2.47
2018-03-16T21:59:17.953Z,2.45
2018-03-16T22:01:46.277Z,0.70
2018-03-16T22:04:14.546Z,4.20
2018-03-16T22:06:42.871Z,2.55
2018-03-16T22:09:11.475Z,0.80
2018-03-16T22:11:39.750Z,0.90
2018-03-16T22:14:08.061Z,0.90
2018-03-16T22:16:36.383Z,1.65
2018-03-16T22:19:05.458Z,10.73
2018-03-16T22:21:34.302Z,1.48
2018-03-16T22:24:02.640Z,2.80
2018-03-16T22:26:31.006Z,0.77
2018-03-16T22:28:59.287Z,0.88
2018-03-16T22:31:29.833Z,1.55
2018-03-16T22:33:58.192Z,1.67
2018-03-16T22:36:26.517Z,0.80
2018-03-16T22:38:54.855Z,0.80
2018-03-16T22:41:23.149Z,2.00
2018-03-16T22:43:51.439Z,1.77
2018-03-16T22:46:21.303Z,3.65
2018-03-16T22:48:49.578Z,0.95
2018-03-16T22:51:18.288Z,0.60
2018-03-16T22:53:46.731Z,1.70
2018-03-16T22:56:15.142Z,0.90
2018-03-16T22:58:43.468Z,0.90
2018-03-16T23:01:11.733Z,2.25
2018-03-16T23:03:41.770Z,1.33
2018-03-16T23:06:10.055Z,1.50
2018-03-16T23:08:38.314Z,1.45
2018-03-16T23:11:07.139Z,1.77
2018-03-16T23:13:35.421Z,4.93
2018-03-16T23:16:03.686Z,0.77
2018-03-16T23:18:32.009Z,0.90
2018-03-16T23:21:00.323Z,0.90
2018-03-16T23:23:28.769Z,1.17
2018-03-16T23:25:57.852Z,0.80
2018-03-16T23:28:26.240Z,1.75
2018-03-16T23:30:54.606Z,2.20
2018-03-16T23:33:22.994Z,0.80
2018-03-16T23:35:51.500Z,2.00
2018-03-16T23:38:20.532Z,0.70
2018-03-16T23:40:49.110Z,1.63
2018-03-16T23:43:17.417Z,0.70
2018-03-16T23:45:46.480Z,4.10
2018-03-16T23:48:14.726Z,2.35
2018-03-16T23:50:43.855Z,1.65
2018-03-16T23:53:12.874Z,0.60
2018-03-16T23:55:41.140Z,2.77
2018-03-16T23:58:09.453Z,0.70
